createdAt,value
2022-11-23T00:00:37.339Z,8.55
2022-11-23T00:01:37.295Z,8.55
2022-11-23T00:02:37.316Z,8.55
2022-11-23T00:03:37.318Z,8.55
2022-11-23T00:04:37.234Z,8.53
2022-11-23T00:05:37.278Z,8.53
2022-11-23T00:06:37.210Z,8.54
2022-11-23T00:07:37.248Z,8.55
2022-11-23T00:08:37.174Z,8.54
2022-11-23T00:09:37.177Z,8.54
2022-11-23T00:10:37.149Z,8.55
2022-11-23T00:11:37.211Z,8.54
2022-11-23T00:12:37.177Z,8.54
2022-11-23T00:13:37.182Z,8.54
2022-11-23T00:14:37.143Z,8.54
2022-11-23T00:15:37.095Z,8.53
2022-11-23T00:16:37.111Z,8.53
2022-11-23T00:17:37.103Z,8.53
2022-11-23T00:18:37.080Z,8.51
2022-11-23T00:19:37.054Z,8.50
2022-11-23T00:20:37.022Z,8.51
2022-11-23T00:21:37.019Z,8.50
2022-11-23T00:22:37.016Z,8.50
2022-11-23T00:23:37.000Z,8.50
2022-11-23T00:24:37.053Z,8.48
2022-11-23T00:25:36.966Z,8.50
2022-11-23T00:26:36.935Z,8.51
2022-11-23T00:27:36.947Z,8.50
2022-11-23T00:28:36.926Z,8.50
2022-11-23T00:29:36.930Z,8.51
2022-11-23T00:30:36.906Z,8.51
2022-11-23T00:31:36.908Z,8.53
2022-11-23T00:32:36.879Z,8.50
2022-11-23T00:33:36.873Z,8.51
2022-11-23T00:34:36.854Z,8.51
2022-11-23T00:35:36.951Z,8.51
2022-11-23T00:36:36.823Z,8.53
2022-11-23T00:37:36.883Z,8.54
2022-11-23T00:38:36.816Z,8.53
2022-11-23T00:39:36.877Z,8.53
2022-11-23T00:40:36.786Z,8.53
2022-11-23T00:41:36.755Z,8.54
2022-11-23T00:42:38.357Z,8.53
2022-11-23T00:43:36.730Z,8.54
2022-11-23T00:44:36.753Z,8.57
2022-11-23T00:45:36.713Z,8.55
2022-11-23T00:46:36.786Z,8.55
2022-11-23T00:47:36.672Z,8.57
2022-11-23T00:48:36.709Z,8.55
2022-11-23T00:49:36.641Z,8.57
2022-11-23T00:50:36.678Z,8.58
2022-11-23T00:51:36.665Z,8.58
2022-11-23T00:52:36.635Z,8.55
2022-11-23T00:53:36.595Z,8.57
2022-11-23T00:54:36.570Z,8.55
2022-11-23T00:55:36.554Z,8.57
2022-11-23T00:56:36.548Z,8.58
2022-11-23T00:57:36.523Z,8.58
2022-11-23T00:58:36.545Z,8.57
2022-11-23T00:59:36.536Z,8.58
2022-11-23T01:00:36.535Z,8.60
2022-11-23T01:01:36.533Z,8.58
2022-11-23T01:02:36.513Z,8.62
2022-11-23T01:03:36.503Z,8.63
2022-11-23T01:04:36.513Z,8.65
2022-11-23T01:05:36.424Z,8.62
2022-11-23T01:06:36.422Z,8.63
2022-11-23T01:07:36.503Z,8.65
2022-11-23T01:08:36.410Z,8.63
2022-11-23T01:09:36.388Z,8.63
2022-11-23T01:10:36.363Z,8.63
2022-11-23T01:11:36.371Z,8.63
2022-11-23T01:12:36.339Z,8.63
2022-11-23T01:13:36.519Z,8.65
2022-11-23T01:14:36.345Z,8.65
2022-11-23T01:15:36.286Z,8.63
2022-11-23T01:16:36.279Z,8.62
2022-11-23T01:17:36.272Z,8.63
2022-11-23T01:18:36.314Z,8.62
2022-11-23T01:19:36.313Z,8.62
2022-11-23T01:20:36.240Z,8.60
2022-11-23T01:54:38.881Z,8.55
2022-11-23T01:55:37.018Z,8.55
2022-11-23T01:56:36.986Z,8.53
2022-11-23T01:57:36.931Z,8.53
2022-11-23T01:58:36.909Z,8.50
2022-11-23T01:59:36.973Z,8.50
2022-11-23T02:00:36.886Z,8.48
2022-11-23T02:01:37.020Z,8.48
2022-11-23T02:02:36.890Z,8.47
2022-11-23T02:03:36.920Z,8.47
2022-11-23T02:04:36.880Z,8.48
2022-11-23T02:05:36.819Z,8.47
2022-11-23T02:06:36.843Z,8.47
2022-11-23T02:07:36.869Z,8.45
2022-11-23T02:08:36.830Z,8.47
2022-11-23T02:09:36.801Z,8.44
2022-11-23T02:10:36.788Z,8.45
2022-11-23T02:11:36.747Z,8.45
2022-11-23T02:12:36.726Z,8.45
2022-11-23T02:13:36.733Z,8.45
2022-11-23T02:14:36.799Z,8.48
2022-11-23T02:15:36.722Z,8.48
2022-11-23T02:16:36.671Z,8.47
2022-11-23T02:17:36.674Z,8.47
2022-11-23T02:18:36.674Z,8.47
2022-11-23T02:19:36.661Z,8.48
2022-11-23T02:20:36.618Z,8.48
2022-11-23T02:21:36.631Z,8.50
2022-11-23T02:22:36.621Z,8.51
2022-11-23T02:23:37.261Z,8.53
2022-11-23T02:24:36.601Z,8.50
2022-11-23T02:25:36.552Z,8.53
2022-11-23T02:26:36.552Z,8.50
2022-11-23T02:27:36.522Z,8.50
2022-11-23T02:28:36.514Z,8.48
2022-11-23T02:29:36.502Z,8.48
2022-11-23T02:30:36.478Z,8.48
2022-11-23T02:31:36.475Z,8.48
2022-11-23T02:32:36.459Z,8.48
2022-11-23T02:33:36.492Z,8.48
2022-11-23T02:34:36.498Z,8.48
2022-11-23T02:35:36.416Z,8.50
2022-11-23T02:36:36.635Z,8.48
2022-11-23T02:37:36.411Z,8.48
2022-11-23T02:38:36.633Z,8.47
2022-11-23T02:39:36.359Z,8.48
2022-11-23T02:40:36.378Z,8.47
2022-11-23T02:41:36.328Z,8.45
2022-11-23T02:42:36.316Z,8.47
2022-11-23T02:43:36.327Z,8.45
2022-11-23T02:44:36.313Z,8.44
2022-11-23T02:45:36.299Z,8.47
2022-11-23T02:46:36.276Z,8.42
2022-11-23T02:47:36.267Z,8.44
2022-11-23T02:48:36.256Z,8.45
2022-11-23T02:49:36.250Z,8.47
2022-11-23T02:50:36.234Z,8.44
2022-11-23T02:51:36.192Z,8.47
2022-11-23T02:52:36.175Z,8.45
2022-11-23T02:53:36.168Z,8.45
2022-11-23T02:54:36.211Z,8.44
2022-11-23T02:55:36.151Z,8.42
2022-11-23T02:56:36.160Z,8.45
2022-11-23T02:57:36.114Z,8.44
2022-11-23T02:58:36.116Z,8.42
2022-11-23T02:59:36.099Z,8.44
2022-11-23T03:00:36.161Z,8.40
2022-11-23T03:01:36.057Z,8.42
2022-11-23T03:02:36.084Z,8.42
2022-11-23T03:03:36.029Z,8.42
2022-11-23T03:04:36.025Z,8.42
2022-11-23T03:05:35.999Z,8.42
2022-11-23T03:06:35.992Z,8.40
2022-11-23T03:07:35.980Z,8.42
2022-11-23T03:08:35.958Z,8.39
2022-11-23T03:09:36.000Z,8.42
2022-11-23T03:10:35.935Z,8.40
2022-11-23T03:11:35.937Z,8.39
2022-11-23T03:12:35.906Z,8.40
2022-11-23T03:13:35.898Z,8.37
2022-11-23T03:14:35.887Z,8.37
2022-11-23T03:15:35.883Z,8.39
2022-11-23T03:16:35.890Z,8.39
2022-11-23T03:17:35.840Z,8.37
2022-11-23T03:18:35.857Z,8.39
2022-11-23T03:19:35.962Z,8.36
2022-11-23T03:20:35.839Z,8.36
2022-11-23T03:21:35.777Z,8.37
2022-11-23T03:22:35.774Z,8.37
2022-11-23T03:23:35.757Z,8.37
2022-11-23T03:24:35.746Z,8.36
2022-11-23T03:25:35.743Z,8.36
2022-11-23T03:26:35.710Z,8.37
2022-11-23T03:27:35.698Z,8.37
2022-11-23T03:28:35.717Z,8.37
2022-11-23T03:29:35.674Z,8.39
2022-11-23T03:30:35.712Z,8.39
2022-11-23T03:31:35.644Z,8.39
2022-11-23T03:32:35.664Z,8.40
2022-11-23T03:33:35.631Z,8.40
2022-11-23T03:34:35.657Z,8.40
2022-11-23T03:35:35.633Z,8.42
2022-11-23T03:36:35.584Z,8.42
2022-11-23T03:37:35.594Z,8.44
2022-11-23T03:38:35.584Z,8.42
2022-11-23T03:39:35.564Z,8.44
2022-11-23T03:40:35.572Z,8.45
2022-11-23T03:41:35.508Z,8.42
2022-11-23T03:42:35.504Z,8.44
2022-11-23T03:43:35.486Z,8.42
2022-11-23T03:44:35.491Z,8.45
2022-11-23T03:45:35.497Z,8.45
2022-11-23T03:46:35.452Z,8.47
2022-11-23T03:47:35.460Z,8.47
2022-11-23T03:48:35.416Z,8.50
2022-11-23T03:49:35.405Z,8.50
2022-11-23T03:50:35.404Z,8.47
2022-11-23T03:51:35.375Z,8.48
2022-11-23T03:52:35.371Z,8.48
2022-11-23T03:53:35.357Z,8.50
2022-11-23T03:54:35.374Z,8.48
2022-11-23T03:55:35.330Z,8.53
2022-11-23T03:56:35.309Z,8.53
2022-11-23T03:57:35.308Z,8.51
2022-11-23T03:58:35.283Z,8.51
2022-11-23T03:59:35.269Z,8.51
2022-11-23T04:00:35.315Z,8.53
2022-11-23T04:01:35.237Z,8.53
2022-11-23T04:02:35.234Z,8.54
2022-11-23T04:03:35.211Z,8.55
2022-11-23T04:04:35.205Z,8.55
2022-11-23T04:05:35.197Z,8.53
2022-11-23T04:06:35.177Z,8.54
2022-11-23T04:07:35.188Z,8.54
2022-11-23T04:08:35.201Z,8.55
2022-11-23T04:09:35.273Z,8.54
2022-11-23T04:10:35.133Z,8.53
2022-11-23T04:11:35.095Z,8.51
2022-11-23T04:12:35.092Z,8.50
2022-11-23T04:13:35.089Z,8.50
2022-11-23T04:14:34.061Z,8.51
2022-11-23T04:15:35.073Z,8.51
2022-11-23T04:16:35.058Z,8.47
2022-11-23T04:17:35.016Z,8.47
2022-11-23T04:18:35.010Z,8.50
2022-11-23T04:19:35.190Z,8.50
2022-11-23T04:20:35.034Z,8.50
2022-11-23T04:21:34.967Z,8.48
2022-11-23T04:22:34.965Z,8.48
2022-11-23T04:23:34.948Z,8.47
2022-11-23T04:24:34.929Z,8.48
2022-11-23T04:25:34.918Z,8.45
2022-11-23T04:26:34.900Z,8.48
2022-11-23T04:27:34.890Z,8.45
2022-11-23T04:28:34.909Z,8.45
2022-11-23T04:29:35.146Z,8.45
2022-11-23T04:30:34.860Z,8.47
2022-11-23T04:31:34.829Z,8.47
2022-11-23T04:32:34.817Z,8.48
2022-11-23T04:33:34.810Z,8.47
2022-11-23T04:34:34.845Z,8.47
2022-11-23T04:35:34.856Z,8.45
2022-11-23T04:36:34.765Z,8.47
2022-11-23T04:37:34.743Z,8.47
2022-11-23T04:38:34.768Z,8.45
2022-11-23T04:39:34.892Z,8.47
2022-11-23T04:40:34.728Z,8.47
2022-11-23T04:41:33.690Z,8.47
2022-11-23T04:42:34.680Z,8.45
2022-11-23T04:43:34.710Z,8.47
2022-11-23T04:44:34.643Z,8.45
2022-11-23T04:45:34.652Z,8.47
2022-11-23T04:46:34.629Z,8.47
2022-11-23T04:47:34.599Z,8.48
2022-11-23T04:48:34.607Z,8.48
2022-11-23T04:49:34.878Z,8.47
2022-11-23T04:50:34.588Z,8.48
2022-11-23T04:51:34.551Z,8.51
2022-11-23T04:52:34.543Z,8.51
2022-11-23T04:53:34.524Z,8.53
2022-11-23T04:54:34.515Z,8.50
2022-11-23T04:55:34.496Z,8.51
2022-11-23T04:56:34.492Z,8.51
2022-11-23T04:57:34.443Z,8.51
2022-11-23T04:58:34.851Z,8.51
2022-11-23T04:59:34.700Z,8.53
2022-11-23T05:00:34.439Z,8.51
2022-11-23T05:01:34.518Z,8.51
2022-11-23T05:02:34.407Z,8.53
2022-11-23T05:03:34.421Z,8.53
2022-11-23T05:04:34.379Z,8.53
2022-11-23T05:05:34.383Z,8.53
2022-11-23T05:06:34.365Z,8.53
2022-11-23T05:07:34.389Z,8.53
2022-11-23T05:08:34.323Z,8.51
2022-11-23T05:09:34.654Z,8.53
2022-11-23T05:10:34.294Z,8.50
2022-11-23T05:11:34.326Z,8.51
2022-11-23T05:12:34.278Z,8.53
2022-11-23T05:13:34.293Z,8.48
2022-11-23T05:14:34.242Z,8.50
2022-11-23T05:15:34.249Z,8.50
2022-11-23T05:16:34.227Z,8.50
2022-11-23T05:17:34.199Z,8.50
2022-11-23T05:18:34.224Z,8.50
2022-11-23T05:19:34.471Z,8.48
2022-11-23T05:20:34.170Z,8.48
2022-11-23T05:21:34.161Z,8.48
2022-11-23T05:22:34.145Z,8.48
2022-11-23T05:23:34.125Z,8.47
2022-11-23T05:24:34.119Z,8.48
2022-11-23T05:25:34.118Z,8.47
2022-11-23T05:26:34.128Z,8.47
2022-11-23T05:27:34.070Z,8.47
2022-11-23T05:28:41.927Z,8.45
2022-11-23T05:29:34.323Z,8.47
2022-11-23T05:30:34.121Z,8.45
2022-11-23T05:31:34.018Z,8.48
2022-11-23T05:32:34.016Z,8.47
2022-11-23T05:33:34.031Z,8.44
2022-11-23T05:34:33.977Z,8.45
2022-11-23T05:35:33.959Z,8.42
2022-11-23T05:36:33.999Z,8.42
2022-11-23T05:37:33.954Z,8.42
2022-11-23T05:38:33.962Z,8.44
2022-11-23T05:39:34.487Z,8.39
2022-11-23T05:40:33.888Z,8.42
2022-11-23T05:41:33.891Z,8.40
2022-11-23T05:42:33.870Z,8.44
2022-11-23T05:43:33.878Z,8.44
2022-11-23T05:44:33.843Z,8.39
2022-11-23T05:45:33.853Z,8.42
2022-11-23T05:46:33.821Z,8.40
2022-11-23T05:47:33.804Z,8.40
2022-11-23T05:48:33.803Z,8.42
2022-11-23T05:49:34.101Z,8.40
2022-11-23T05:50:33.749Z,8.39
2022-11-23T05:51:33.741Z,8.39
2022-11-23T05:52:33.729Z,8.42
2022-11-23T05:53:33.696Z,8.42
2022-11-23T05:54:33.704Z,8.40
2022-11-23T05:55:33.670Z,8.42
2022-11-23T05:56:37.283Z,8.42
2022-11-23T05:57:33.676Z,8.40
2022-11-23T05:58:33.650Z,8.40
2022-11-23T05:59:34.221Z,8.42
2022-11-23T06:00:33.615Z,8.42
2022-11-23T06:01:33.605Z,8.42
2022-11-23T06:02:38.120Z,8.42
2022-11-23T06:03:33.651Z,8.40
2022-11-23T06:04:33.563Z,8.39
2022-11-23T06:05:33.538Z,8.40
2022-11-23T06:06:33.544Z,8.40
2022-11-23T06:07:33.581Z,8.40
2022-11-23T06:08:33.501Z,8.40
2022-11-23T06:09:33.761Z,8.44
2022-11-23T06:10:33.496Z,8.40
2022-11-23T06:11:33.477Z,8.40
2022-11-23T06:12:33.472Z,8.39
2022-11-23T06:13:33.431Z,8.40
2022-11-23T06:14:33.424Z,8.40
2022-11-23T06:15:33.410Z,8.39
2022-11-23T06:16:33.410Z,8.37
2022-11-23T06:17:33.384Z,8.40
2022-11-23T06:18:33.367Z,8.40
2022-11-23T06:19:33.958Z,8.37
2022-11-23T06:20:33.352Z,8.37
2022-11-23T06:21:33.390Z,8.36
2022-11-23T06:22:33.323Z,8.39
2022-11-23T06:23:33.307Z,8.39
2022-11-23T06:24:33.287Z,8.39
2022-11-23T06:25:33.271Z,8.37
2022-11-23T06:26:33.300Z,8.39
2022-11-23T06:27:33.272Z,8.35
2022-11-23T06:28:33.252Z,8.37
2022-11-23T06:29:33.727Z,8.36
2022-11-23T06:30:33.270Z,8.37
2022-11-23T06:31:33.189Z,8.36
2022-11-23T06:32:33.212Z,8.35
2022-11-23T06:33:33.156Z,8.37
2022-11-23T06:34:33.187Z,8.36
2022-11-23T06:35:33.145Z,8.36
2022-11-23T06:36:33.130Z,8.36
2022-11-23T06:37:33.120Z,8.35
2022-11-23T06:38:33.100Z,8.35
2022-11-23T06:39:33.486Z,8.37
2022-11-23T06:40:33.073Z,8.36
2022-11-23T06:41:33.060Z,8.37
2022-11-23T06:42:40.465Z,8.36
2022-11-23T06:43:33.040Z,8.35
2022-11-23T06:44:33.017Z,8.36
2022-11-23T06:45:33.027Z,8.36
2022-11-23T06:46:32.984Z,8.37
2022-11-23T06:47:33.033Z,8.35
2022-11-23T06:48:32.966Z,8.35
2022-11-23T06:49:33.232Z,8.36
2022-11-23T06:50:32.932Z,8.36
2022-11-23T06:51:32.927Z,8.35
2022-11-23T06:52:32.922Z,8.35
2022-11-23T06:53:32.896Z,8.36
2022-11-23T06:54:32.880Z,8.36
2022-11-23T06:55:33.029Z,8.36
2022-11-23T06:56:32.849Z,8.37
2022-11-23T06:57:32.857Z,8.35
2022-11-23T06:58:32.833Z,8.37
2022-11-23T06:59:33.135Z,8.35
2022-11-23T07:00:32.807Z,8.36
2022-11-23T07:01:33.033Z,8.37
2022-11-23T07:02:32.862Z,8.36
2022-11-23T07:03:32.814Z,8.39
2022-11-23T07:04:32.752Z,8.36
2022-11-23T07:05:32.751Z,8.39
2022-11-23T07:06:32.797Z,8.36
2022-11-23T07:07:32.745Z,8.36
2022-11-23T07:08:32.714Z,8.36
2022-11-23T07:09:32.976Z,8.37
2022-11-23T07:10:32.714Z,8.39
2022-11-23T07:11:32.658Z,8.39
2022-11-23T07:12:32.691Z,8.40
2022-11-23T07:13:32.624Z,8.42
2022-11-23T07:14:32.604Z,8.39
2022-11-23T07:15:32.602Z,8.40
2022-11-23T07:16:32.586Z,8.40
2022-11-23T07:17:55.628Z,8.40
2022-11-23T07:18:32.703Z,8.39
2022-11-23T07:19:32.998Z,8.44
2022-11-23T07:20:32.542Z,8.44
2022-11-23T07:29:39.918Z,8.47
2022-11-23T07:30:17.160Z,8.48
2022-11-23T07:31:17.156Z,8.47
2022-11-23T07:32:17.152Z,8.50
2022-11-23T07:33:17.136Z,8.48
2022-11-23T07:34:17.112Z,8.50
2022-11-23T07:35:17.109Z,8.51
2022-11-23T07:36:17.128Z,8.50
2022-11-23T07:37:17.124Z,8.50
2022-11-23T07:38:17.081Z,8.53
2022-11-23T07:39:17.109Z,8.53
2022-11-23T07:40:17.037Z,8.54
2022-11-23T07:41:17.032Z,8.54
2022-11-23T07:42:32.426Z,8.54
2022-11-23T07:43:17.017Z,8.54
2022-11-23T07:44:16.985Z,8.57
2022-11-23T07:45:17.017Z,8.55
2022-11-23T07:46:16.996Z,8.57
2022-11-23T07:47:16.942Z,8.55
2022-11-23T07:48:16.941Z,8.55
2022-11-23T07:49:16.914Z,8.55
2022-11-23T07:50:16.904Z,8.55
2022-11-23T07:51:16.889Z,8.57
2022-11-23T07:52:16.891Z,8.58
2022-11-23T07:53:16.925Z,8.58
2022-11-23T07:54:22.156Z,8.62
2022-11-23T07:55:16.856Z,8.58
2022-11-23T07:56:16.815Z,8.60
2022-11-23T07:57:16.822Z,8.60
2022-11-23T07:58:16.840Z,8.60
2022-11-23T07:59:16.793Z,8.63
2022-11-23T08:00:16.763Z,8.63
2022-11-23T08:01:16.758Z,8.66
2022-11-23T08:02:16.802Z,8.68
2022-11-23T08:03:32.355Z,8.66
2022-11-23T08:04:16.755Z,8.69
2022-11-23T08:05:16.860Z,8.72
2022-11-23T08:06:16.698Z,8.75
2022-11-23T08:07:16.766Z,8.76
2022-11-23T08:08:16.753Z,8.81
2022-11-23T08:09:16.653Z,8.83
2022-11-23T08:10:16.624Z,8.86
2022-11-23T08:11:16.635Z,8.84
2022-11-23T08:12:16.616Z,8.88
2022-11-23T08:13:16.630Z,8.87
2022-11-23T08:14:17.811Z,8.87
2022-11-23T08:15:16.625Z,8.91
2022-11-23T08:16:16.557Z,8.88
2022-11-23T08:17:16.542Z,8.94
2022-11-23T08:18:17.163Z,8.94
2022-11-23T08:19:16.525Z,8.91
2022-11-23T08:20:16.483Z,8.93
2022-11-23T08:21:16.534Z,8.93
2022-11-23T08:22:16.482Z,8.94
2022-11-23T08:23:16.539Z,8.93
2022-11-23T08:24:16.474Z,8.97
2022-11-23T08:25:16.430Z,8.99
2022-11-23T08:26:16.419Z,8.99
2022-11-23T08:27:16.399Z,9.02
2022-11-23T08:28:16.410Z,9.04
2022-11-23T08:29:16.376Z,9.04
2022-11-23T08:30:16.441Z,9.05
2022-11-23T08:31:16.358Z,9.06
2022-11-23T08:32:16.333Z,9.10
2022-11-23T08:33:16.416Z,9.10
2022-11-23T08:34:16.306Z,9.15
2022-11-23T08:35:16.319Z,9.16
2022-11-23T08:36:16.310Z,9.18
2022-11-23T08:37:16.301Z,9.15
2022-11-23T08:38:16.317Z,9.18
2022-11-23T08:39:16.255Z,9.20
2022-11-23T08:40:20.663Z,9.20
2022-11-23T08:41:16.222Z,9.21
2022-11-23T08:42:16.196Z,9.20
2022-11-23T08:43:16.203Z,9.18
2022-11-23T08:44:16.198Z,9.16
2022-11-23T08:45:16.162Z,9.18
2022-11-23T08:46:16.166Z,9.16
2022-11-23T08:47:16.139Z,9.20
2022-11-23T08:48:16.383Z,9.18
2022-11-23T08:49:16.113Z,9.21
2022-11-23T08:50:15.107Z,9.16
2022-11-23T08:51:16.084Z,9.20
2022-11-23T08:52:16.059Z,9.20
2022-11-23T08:53:16.066Z,9.21
2022-11-23T08:54:16.108Z,9.23
2022-11-23T08:55:16.052Z,9.23
2022-11-23T08:56:16.029Z,9.25
2022-11-23T08:57:16.005Z,9.25
2022-11-23T08:58:15.975Z,9.27
2022-11-23T08:59:16.093Z,9.31
2022-11-23T09:00:15.950Z,9.32
2022-11-23T09:01:15.992Z,9.34
2022-11-23T09:02:15.931Z,9.38
2022-11-23T09:03:15.917Z,9.42
2022-11-23T09:04:20.467Z,9.38
2022-11-23T09:05:15.917Z,9.43
2022-11-23T09:06:15.866Z,9.43
2022-11-23T09:07:15.873Z,9.46
2022-11-23T09:08:15.847Z,9.50
2022-11-23T09:09:15.865Z,9.58
2022-11-23T09:10:18.656Z,9.57
2022-11-23T09:11:16.875Z,9.60
2022-11-23T09:12:36.826Z,9.61
2022-11-23T09:13:15.771Z,9.63
2022-11-23T09:14:15.794Z,9.67
2022-11-23T09:15:15.752Z,9.70
2022-11-23T09:16:36.787Z,9.75
2022-11-23T09:17:15.744Z,9.75
2022-11-23T09:18:38.818Z,9.75
2022-11-23T09:19:36.723Z,9.79
2022-11-23T09:20:15.685Z,9.81
2022-11-23T09:21:15.682Z,9.85
2022-11-23T09:22:15.690Z,9.83
2022-11-23T09:23:15.640Z,9.88
2022-11-23T09:24:15.744Z,9.89
2022-11-23T09:25:15.605Z,9.89
2022-11-23T09:26:15.590Z,9.93
2022-11-23T09:27:15.599Z,9.94
2022-11-23T09:28:15.571Z,9.96
2022-11-23T09:29:15.604Z,9.99
2022-11-23T09:30:15.591Z,9.99
2022-11-23T09:31:15.539Z,10.01
2022-11-23T09:32:15.517Z,10.03
2022-11-23T09:34:51.167Z,10.06
2022-11-23T09:35:52.212Z,10.12
2022-11-23T09:36:52.148Z,10.12
2022-11-23T09:37:52.118Z,10.15
2022-11-23T09:38:56.489Z,10.19
2022-11-23T09:39:52.118Z,10.17
2022-11-23T09:40:57.532Z,10.18
2022-11-23T09:41:52.096Z,10.22
2022-11-23T09:42:52.068Z,10.22
2022-11-23T09:43:52.077Z,10.26
2022-11-23T09:44:52.791Z,10.28
2022-11-23T09:45:52.027Z,10.34
2022-11-23T09:46:52.013Z,10.33
2022-11-23T09:47:52.002Z,10.37
2022-11-23T09:48:51.993Z,10.39
2022-11-23T09:49:51.965Z,10.39
2022-11-23T09:50:51.966Z,10.42
2022-11-23T09:51:51.973Z,10.44
2022-11-23T09:52:51.940Z,10.52
2022-11-23T09:53:51.928Z,10.59
2022-11-23T09:54:51.915Z,10.59
2022-11-23T09:58:42.596Z,10.70
2022-11-23T09:59:41.919Z,10.71
2022-11-23T10:00:41.906Z,10.73
2022-11-23T10:01:41.900Z,10.77
2022-11-23T10:02:42.947Z,10.78
2022-11-23T10:05:49.580Z,10.84
2022-11-23T10:06:50.588Z,10.84
2022-11-23T10:07:50.586Z,10.88
2022-11-23T10:08:50.555Z,10.94
2022-11-23T10:09:50.533Z,10.98
2022-11-23T10:10:50.542Z,11.03
2022-11-23T10:11:50.530Z,11.10
2022-11-23T10:12:50.551Z,11.11
2022-11-23T10:13:50.562Z,11.16
2022-11-23T10:14:50.487Z,11.19
2022-11-23T10:15:50.472Z,11.25
2022-11-23T10:16:50.476Z,11.28
2022-11-23T10:17:50.413Z,11.32
2022-11-23T10:18:50.419Z,11.35
2022-11-23T10:19:50.396Z,11.32
2022-11-23T10:20:50.427Z,11.29
2022-11-23T10:21:50.367Z,11.27
2022-11-23T10:22:50.355Z,11.20
2022-11-23T10:23:50.367Z,11.25
2022-11-23T10:24:50.352Z,11.24
2022-11-23T10:25:50.318Z,11.21
2022-11-23T10:26:50.320Z,11.21
2022-11-23T10:27:50.298Z,11.25
2022-11-23T10:28:50.274Z,11.25
2022-11-23T10:29:50.269Z,11.25
2022-11-23T10:30:50.270Z,11.28
2022-11-23T10:31:54.151Z,11.21
2022-11-23T10:32:50.224Z,11.21
2022-11-23T10:33:50.205Z,11.17
2022-11-23T10:34:50.196Z,11.19
2022-11-23T10:35:50.174Z,11.20
2022-11-23T10:36:50.216Z,11.21
2022-11-23T10:37:53.495Z,11.24
2022-11-23T10:38:50.159Z,11.21
2022-11-23T10:39:50.137Z,11.19
2022-11-23T10:40:50.110Z,11.20
2022-11-23T10:41:50.086Z,11.21
2022-11-23T10:42:50.074Z,11.24
2022-11-23T10:43:50.061Z,11.21
2022-11-23T10:44:50.077Z,11.24
2022-11-23T10:45:50.043Z,11.25
2022-11-23T10:46:50.069Z,11.27
2022-11-23T10:47:50.046Z,11.28
2022-11-23T10:48:50.082Z,11.28
2022-11-23T10:49:50.033Z,11.25
2022-11-23T10:50:49.975Z,11.31
2022-11-23T10:51:49.967Z,11.31
2022-11-23T10:52:49.979Z,11.32
2022-11-23T10:53:49.938Z,11.32
2022-11-23T10:54:49.927Z,11.32
2022-11-23T10:55:49.907Z,11.35
2022-11-23T10:56:49.903Z,11.36
2022-11-23T10:57:49.878Z,11.43
2022-11-23T10:58:49.884Z,11.44
2022-11-23T10:59:49.859Z,11.49
2022-11-23T11:00:49.880Z,11.47
2022-11-23T11:01:49.883Z,11.50
2022-11-23T11:02:49.806Z,11.53
2022-11-23T11:03:49.803Z,11.52
2022-11-23T11:04:53.225Z,11.53
2022-11-23T11:06:49.773Z,11.56
2022-11-23T11:07:49.798Z,11.62
2022-11-23T11:08:49.731Z,11.64
2022-11-23T11:09:49.720Z,11.67
2022-11-23T11:10:49.739Z,11.72
2022-11-23T11:11:49.710Z,11.74
2022-11-23T11:12:49.686Z,11.75
2022-11-23T11:13:49.688Z,11.75
2022-11-23T11:14:49.731Z,11.78
2022-11-23T11:15:49.638Z,11.77
2022-11-23T11:16:49.654Z,11.83
2022-11-23T11:17:49.627Z,11.83
2022-11-23T11:18:49.624Z,11.87
2022-11-23T11:19:49.587Z,11.94
2022-11-23T11:20:49.605Z,11.97
2022-11-23T11:21:49.567Z,11.99
2022-11-23T11:22:49.550Z,12.04
2022-11-23T11:23:49.530Z,12.08
2022-11-23T11:24:49.537Z,12.06
2022-11-23T11:25:49.579Z,12.12
2022-11-23T11:26:49.504Z,12.12
2022-11-23T11:27:49.473Z,12.15
2022-11-23T11:28:49.467Z,12.15
2022-11-23T11:29:49.461Z,12.15
2022-11-23T11:30:49.460Z,12.20
2022-11-23T11:31:49.419Z,12.21
2022-11-23T11:32:49.422Z,12.20
2022-11-23T11:33:49.404Z,12.19
2022-11-23T11:34:49.414Z,12.19
2022-11-23T11:35:49.439Z,12.19
2022-11-23T11:36:49.365Z,12.21
2022-11-23T11:37:49.378Z,12.24
2022-11-23T11:39:08.138Z,12.23
2022-11-23T11:39:49.351Z,12.24
2022-11-23T11:40:49.308Z,12.26
2022-11-23T11:41:49.311Z,12.26
2022-11-23T11:42:49.282Z,12.24
2022-11-23T11:43:49.269Z,12.23
2022-11-23T11:44:49.259Z,12.23
2022-11-23T11:46:13.533Z,12.23
2022-11-23T11:46:49.261Z,12.16
2022-11-23T11:47:49.235Z,12.15
2022-11-23T11:48:49.205Z,12.12
2022-11-23T11:49:49.194Z,12.19
2022-11-23T11:50:49.176Z,12.15
2022-11-23T11:51:49.222Z,12.16
2022-11-23T11:52:49.141Z,12.19
2022-11-23T11:53:49.232Z,12.13
2022-11-23T11:54:49.154Z,12.16
2022-11-23T11:55:49.114Z,12.16
2022-11-23T11:56:49.100Z,12.15
2022-11-23T11:57:49.118Z,12.16
2022-11-23T11:58:49.089Z,12.16
2022-11-23T11:59:49.102Z,12.19
2022-11-23T12:00:49.044Z,12.19
2022-11-23T12:01:48.028Z,12.12
2022-11-23T12:02:49.083Z,12.15
2022-11-23T12:03:49.048Z,12.13
2022-11-23T12:04:49.010Z,12.15
2022-11-23T12:07:10.090Z,12.24
2022-11-23T12:08:10.014Z,12.24
2022-11-23T12:09:09.982Z,12.26
2022-11-23T12:10:10.076Z,12.29
2022-11-23T12:11:09.968Z,12.27
2022-11-23T12:12:10.099Z,12.27
2022-11-23T12:13:12.184Z,12.27
2022-11-23T12:14:09.940Z,12.27
2022-11-23T12:15:33.279Z,12.26
2022-11-23T12:16:09.911Z,12.30
2022-11-23T12:17:31.968Z,12.30
2022-11-23T12:18:11.814Z,12.33
2022-11-23T12:19:10.927Z,12.34
2022-11-23T12:20:09.860Z,12.37
2022-11-23T12:21:10.127Z,12.38
2022-11-23T12:22:09.857Z,12.37
2022-11-23T12:23:09.953Z,12.38
2022-11-23T12:24:09.782Z,12.38
2022-11-23T12:25:31.804Z,12.34
2022-11-23T12:26:09.754Z,12.38
2022-11-23T12:27:09.799Z,12.38
2022-11-23T12:28:31.915Z,12.39
2022-11-23T12:29:09.704Z,12.38
2022-11-23T12:31:25.639Z,12.44
2022-11-23T12:32:24.375Z,12.42
2022-11-23T12:33:24.401Z,12.44
2022-11-23T12:34:24.337Z,12.44
2022-11-23T12:38:35.055Z,12.24
2022-11-23T12:39:34.314Z,12.23
2022-11-23T12:40:34.306Z,12.16
2022-11-23T12:41:34.308Z,12.16
2022-11-23T12:42:34.326Z,12.19
2022-11-23T12:43:36.650Z,12.20
2022-11-23T12:44:34.523Z,12.21
2022-11-23T12:45:34.272Z,12.19
2022-11-23T12:46:34.240Z,12.20
2022-11-23T12:47:34.222Z,12.16
2022-11-23T12:48:34.206Z,12.13
2022-11-23T12:49:38.799Z,12.12
2022-11-23T12:50:34.194Z,12.13
2022-11-23T12:51:34.183Z,12.13
2022-11-23T12:52:34.175Z,12.08
2022-11-23T12:53:34.189Z,12.04
2022-11-23T12:54:34.746Z,11.99
2022-11-23T12:55:34.098Z,11.97
2022-11-23T12:56:34.113Z,11.97
2022-11-23T12:57:34.121Z,11.99
2022-11-23T12:58:34.085Z,11.99
2022-11-23T12:59:34.189Z,11.96
2022-11-23T13:00:34.096Z,11.94
2022-11-23T13:01:34.215Z,11.94
2022-11-23T13:02:34.070Z,11.90
2022-11-23T13:03:34.015Z,11.89
2022-11-23T13:04:34.303Z,11.87
2022-11-23T13:05:33.990Z,11.86
2022-11-23T13:06:34.004Z,11.86
2022-11-23T13:07:43.248Z,11.87
2022-11-23T13:08:33.995Z,11.87
2022-11-23T13:09:33.906Z,11.89
2022-11-23T13:10:33.916Z,11.87
2022-11-23T13:11:33.907Z,11.86
2022-11-23T13:12:33.896Z,11.85
2022-11-23T13:13:33.857Z,11.86
2022-11-23T13:14:34.095Z,11.85
2022-11-23T13:15:33.877Z,11.85
2022-11-23T13:16:33.954Z,11.85
2022-11-23T13:17:33.818Z,11.85
2022-11-23T13:18:33.795Z,11.85
2022-11-23T13:19:33.782Z,11.80
2022-11-23T13:20:33.781Z,11.78
2022-11-23T13:21:33.747Z,11.78
2022-11-23T13:22:33.870Z,11.74
2022-11-23T13:23:33.760Z,11.75
2022-11-23T13:24:33.948Z,11.72
2022-11-23T13:25:33.691Z,11.70
2022-11-23T13:26:33.689Z,11.70
2022-11-23T13:27:33.683Z,11.67
2022-11-23T13:28:33.711Z,11.56
2022-11-23T13:29:33.667Z,11.50
2022-11-23T13:31:07.201Z,11.47
2022-11-23T13:31:33.787Z,11.44
2022-11-23T13:32:33.616Z,11.36
2022-11-23T13:33:37.191Z,11.32
2022-11-23T13:34:33.925Z,11.29
2022-11-23T13:35:33.584Z,11.27
2022-11-23T13:37:04.255Z,11.25
2022-11-23T13:37:33.539Z,11.25
2022-11-23T13:38:33.553Z,11.29
2022-11-23T13:39:33.956Z,11.27
2022-11-23T13:40:33.510Z,11.31
2022-11-23T13:41:33.867Z,11.32
2022-11-23T13:42:33.468Z,11.32
2022-11-23T13:43:33.452Z,11.28
2022-11-23T13:44:33.762Z,11.25
2022-11-23T13:45:33.456Z,11.24
2022-11-23T13:46:33.467Z,11.20
2022-11-23T13:47:33.395Z,11.19
2022-11-23T13:49:33.372Z,11.14
2022-11-23T13:50:33.356Z,11.11
2022-11-23T13:51:33.351Z,11.10
2022-11-23T13:52:33.393Z,11.09
2022-11-23T13:53:33.331Z,11.07
2022-11-23T13:54:33.742Z,11.07
2022-11-23T13:55:33.286Z,11.07
2022-11-23T13:56:33.285Z,11.06
2022-11-23T13:57:33.259Z,11.01
2022-11-23T13:58:33.270Z,10.99
2022-11-23T13:59:33.233Z,10.98
2022-11-23T14:00:33.239Z,10.99
2022-11-23T14:01:33.264Z,10.95
2022-11-23T14:02:33.329Z,10.88
2022-11-23T14:03:33.180Z,10.86
2022-11-23T14:04:33.330Z,10.83